This is the latest recevied weather packets stored in our database for station/object KC5TIL-3. If no packets are shown the sender has not sent any weather packets the latest 10 day(s).
| Time | Temp. | Humidity | Pressure | Rain* | Wind** | Luminosity | Snow |
|---|---|---|---|---|---|---|---|
| 1787939038 | 35° C | 16% | 1015.8 hPa | 0 mm | 1.34 m/s, 309° | - | - |
| 1787938736 | 35° C | 16% | 1015.8 hPa | 0 mm | 3.13 m/s, 313° | - | - |
| 1787938438 | 34.44° C | 17% | 1015.8 hPa | 0 mm | 3.13 m/s, 108° | - | - |
| 1787938140 | 35° C | 17% | 1015.8 hPa | 0 mm | 3.13 m/s, 145° | - | - |
| 1787937838 | 35° C | 17% | 1015.8 hPa | 0 mm | 1.79 m/s, 141° | - | - |
| 1787937540 | 34.44° C | 17% | 1015.8 hPa | 0 mm | 4.02 m/s, 111° | - | - |
| 1787937242 | 34.44° C | 17% | 1015.8 hPa | 0 mm | 1.34 m/s, 111° | - | - |
| 1787936941 | 34.44° C | 17% | 1015.8 hPa | 0 mm | 1.79 m/s, 266° | - | - |
| 1787936642 | 34.44° C | 17% | 1015.8 hPa | 0 mm | 2.68 m/s, 113° | - | - |
| 1787936344 | 33.33° C | 18% | 1015.8 hPa | 0 mm | 2.68 m/s, 117° | - | - |
| 1787936043 | 35° C | 17% | 1015.8 hPa | 0 mm | 0 m/s | - | - |
| 1787935736 | 34.44° C | 18% | 1015.8 hPa | 0 mm | 1.79 m/s, 146° | - | - |
| 1787935438 | 33.33° C | 18% | 1015.8 hPa | 0 mm | 3.13 m/s, 111° | - | - |
| 1787935136 | 33.89° C | 18% | 1015.8 hPa | 0 mm | 0 m/s | - | - |
| 1787934838 | 33.33° C | 18% | 1015.8 hPa | 0 mm | 2.24 m/s, 126° | - | - |
| 1787934540 | 33.89° C | 18% | 1015.8 hPa | 0 mm | 1.79 m/s, 132° | - | - |
| 1787934239 | 33.89° C | 19% | 1015.8 hPa | 0 mm | 2.68 m/s, 118° | - | - |
| 1787933941 | 33.33° C | 20% | 1015.8 hPa | 0 mm | 1.79 m/s, 59° | - | - |
| 1787933642 | 33.33° C | 20% | 1015.8 hPa | 0 mm | 1.34 m/s, 139° | - | - |
| 1787933341 | 32.22° C | 22% | 1015.8 hPa | 0 mm | 3.58 m/s, 110° | - | - |
| 1787933043 | 33.33° C | 22% | 1015.8 hPa | 0 mm | 1.34 m/s, 274° | - | - |
| 1787932745 | 32.78° C | 22% | 1015.8 hPa | 0 mm | 1.79 m/s, 71° | - | - |
| 1787932439 | 33.33° C | 22% | 1015.8 hPa | 0 mm | 1.34 m/s, 31° | - | - |
| 1787932141 | 32.78° C | 23% | 1015.8 hPa | 0 mm | 1.79 m/s, 129° | - | - |
| 1787931842 | 32.22° C | 27% | 1015.8 hPa | 0 mm | 1.79 m/s, 64° | - | - |
* Rain latest hour (hover to see other rain measurements)
** Current wind speed in m/s (hover to see current wind gust speed)